sensor_id;sensor_type;location;lat;lon;timestamp;P1;durP1;ratioP1;P2;durP2;ratioP2
25525;SDS011;13424;48.424;11.258;2023-07-13T03:14:02;23.88;;;10.70;;
25525;SDS011;13424;48.424;11.258;2023-07-13T03:16:33;19.40;;;12.15;;
25525;SDS011;13424;48.424;11.258;2023-07-13T03:18:59;16.35;;;10.00;;
25525;SDS011;13424;48.424;11.258;2023-07-13T03:21:26;20.02;;;10.95;;
25525;SDS011;13424;48.424;11.258;2023-07-13T03:28:19;23.27;;;10.60;;
25525;SDS011;13424;48.424;11.258;2023-07-13T03:30:45;18.08;;;10.70;;
25525;SDS011;13424;48.424;11.258;2023-07-13T03:33:11;15.88;;;10.90;;
25525;SDS011;13424;48.424;11.258;2023-07-13T03:35:40;20.08;;;10.80;;
25525;SDS011;13424;48.424;11.258;2023-07-13T03:38:07;17.50;;;11.77;;
25525;SDS011;13424;48.424;11.258;2023-07-13T03:40:33;13.48;;;10.15;;
25525;SDS011;13424;48.424;11.258;2023-07-13T03:42:59;13.93;;;10.15;;
25525;SDS011;13424;48.424;11.258;2023-07-13T06:51:29;8.45;;;3.35;;
25525;SDS011;13424;48.424;11.258;2023-07-13T06:53:55;7.40;;;3.58;;
25525;SDS011;13424;48.424;11.258;2023-07-13T06:56:21;14.50;;;4.20;;
25525;SDS011;13424;48.424;11.258;2023-07-13T07:56:08;8.20;;;3.10;;
25525;SDS011;13424;48.424;11.258;2023-07-13T07:58:35;5.97;;;3.35;;
25525;SDS011;13424;48.424;11.258;2023-07-13T08:01:02;5.40;;;3.47;;
25525;SDS011;13424;48.424;11.258;2023-07-13T08:03:32;6.22;;;3.60;;
25525;SDS011;13424;48.424;11.258;2023-07-13T08:05:58;4.88;;;3.47;;
25525;SDS011;13424;48.424;11.258;2023-07-13T08:08:24;4.20;;;3.03;;
25525;SDS011;13424;48.424;11.258;2023-07-13T08:10:50;5.07;;;3.25;;
25525;SDS011;13424;48.424;11.258;2023-07-13T08:13:17;5.65;;;2.83;;
25525;SDS011;13424;48.424;11.258;2023-07-13T08:15:43;6.45;;;2.97;;
25525;SDS011;13424;48.424;11.258;2023-07-13T08:18:09;4.05;;;2.83;;
25525;SDS011;13424;48.424;11.258;2023-07-13T08:20:38;4.95;;;2.97;;
25525;SDS011;13424;48.424;11.258;2023-07-13T08:23:05;5.18;;;3.40;;
25525;SDS011;13424;48.424;11.258;2023-07-13T08:25:34;7.32;;;3.25;;
25525;SDS011;13424;48.424;11.258;2023-07-13T08:28:01;5.22;;;2.60;;
25525;SDS011;13424;48.424;11.258;2023-07-13T08:30:28;6.57;;;2.70;;
25525;SDS011;13424;48.424;11.258;2023-07-13T08:32:54;5.78;;;3.15;;
25525;SDS011;13424;48.424;11.258;2023-07-13T08:35:20;9.25;;;2.90;;
25525;SDS011;13424;48.424;11.258;2023-07-13T08:37:46;5.35;;;2.65;;
25525;SDS011;13424;48.424;11.258;2023-07-13T08:40:12;5.60;;;2.97;;
25525;SDS011;13424;48.424;11.258;2023-07-13T08:42:42;6.15;;;2.95;;
25525;SDS011;13424;48.424;11.258;2023-07-13T08:45:30;5.28;;;2.60;;
25525;SDS011;13424;48.424;11.258;2023-07-13T08:48:26;4.38;;;2.63;;
25525;SDS011;13424;48.424;11.258;2023-07-13T08:51:44;4.47;;;2.78;;
25525;SDS011;13424;48.424;11.258;2023-07-13T08:54:36;5.10;;;2.78;;
25525;SDS011;13424;48.424;11.258;2023-07-13T08:57:18;4.28;;;2.78;;
25525;SDS011;13424;48.424;11.258;2023-07-13T08:59:50;5.20;;;2.80;;
25525;SDS011;13424;48.424;11.258;2023-07-13T09:02:28;7.05;;;2.67;;
25525;SDS011;13424;48.424;11.258;2023-07-13T09:05:29;5.30;;;3.10;;
25525;SDS011;13424;48.424;11.258;2023-07-13T09:08:43;4.32;;;2.80;;
25525;SDS011;13424;48.424;11.258;2023-07-13T09:12:02;7.90;;;3.45;;
25525;SDS011;13424;48.424;11.258;2023-07-13T09:14:48;3.83;;;2.95;;
25525;SDS011;13424;48.424;11.258;2023-07-13T09:17:39;4.90;;;2.60;;
25525;SDS011;13424;48.424;11.258;2023-07-13T09:20:29;5.40;;;3.53;;
25525;SDS011;13424;48.424;11.258;2023-07-13T09:23:20;6.95;;;3.13;;
25525;SDS011;13424;48.424;11.258;2023-07-13T09:25:53;7.35;;;3.20;;
25525;SDS011;13424;48.424;11.258;2023-07-13T09:28:33;5.78;;;2.95;;
25525;SDS011;13424;48.424;11.258;2023-07-13T09:31:10;10.18;;;2.92;;
25525;SDS011;13424;48.424;11.258;2023-07-13T09:33:48;5.80;;;2.60;;
25525;SDS011;13424;48.424;11.258;2023-07-13T09:36:26;8.73;;;3.22;;
25525;SDS011;13424;48.424;11.258;2023-07-13T09:42:17;5.90;;;3.42;;
25525;SDS011;13424;48.424;11.258;2023-07-13T09:44:58;7.65;;;2.40;;
25525;SDS011;13424;48.424;11.258;2023-07-13T09:47:33;5.05;;;2.70;;
25525;SDS011;13424;48.424;11.258;2023-07-13T09:50:15;6.00;;;3.03;;
25525;SDS011;13424;48.424;11.258;2023-07-13T09:52:47;8.02;;;2.58;;
25525;SDS011;13424;48.424;11.258;2023-07-13T09:55:34;5.30;;;3.08;;
25525;SDS011;13424;48.424;11.258;2023-07-13T09:58:17;4.72;;;2.75;;
25525;SDS011;13424;48.424;11.258;2023-07-13T10:01:02;11.75;;;2.90;;
25525;SDS011;13424;48.424;11.258;2023-07-13T10:03:34;2.75;;;2.33;;
25525;SDS011;13424;48.424;11.258;2023-07-13T10:06:15;2.83;;;2.30;;
25525;SDS011;13424;48.424;11.258;2023-07-13T10:08:45;5.50;;;2.00;;
25525;SDS011;13424;48.424;11.258;2023-07-13T10:11:20;3.30;;;2.20;;
25525;SDS011;13424;48.424;11.258;2023-07-13T10:13:55;4.17;;;2.60;;
25525;SDS011;13424;48.424;11.258;2023-07-13T10:16:34;10.45;;;2.60;;
25525;SDS011;13424;48.424;11.258;2023-07-13T10:21:55;4.95;;;2.20;;
25525;SDS011;13424;48.424;11.258;2023-07-13T10:24:31;4.05;;;1.80;;
25525;SDS011;13424;48.424;11.258;2023-07-13T10:27:10;2.90;;;2.05;;
25525;SDS011;13424;48.424;11.258;2023-07-13T10:29:52;2.53;;;2.33;;
25525;SDS011;13424;48.424;11.258;2023-07-13T10:32:45;3.53;;;1.98;;
25525;SDS011;13424;48.424;11.258;2023-07-13T10:35:14;3.97;;;2.80;;
25525;SDS011;13424;48.424;11.258;2023-07-13T10:38:02;3.25;;;2.30;;
25525;SDS011;13424;48.424;11.258;2023-07-13T10:40:50;5.40;;;2.38;;
25525;SDS011;13424;48.424;11.258;2023-07-13T10:43:27;9.23;;;2.42;;
25525;SDS011;13424;48.424;11.258;2023-07-13T10:46:02;5.40;;;2.25;;
25525;SDS011;13424;48.424;11.258;2023-07-13T10:51:02;3.30;;;2.00;;
25525;SDS011;13424;48.424;11.258;2023-07-13T10:53:36;5.40;;;2.00;;
25525;SDS011;13424;48.424;11.258;2023-07-13T10:58:42;4.35;;;2.45;;
25525;SDS011;13424;48.424;11.258;2023-07-13T11:01:14;5.80;;;1.95;;
25525;SDS011;13424;48.424;11.258;2023-07-13T11:04:02;6.35;;;2.80;;
25525;SDS011;13424;48.424;11.258;2023-07-13T11:22:46;4.95;;;2.38;;
25525;SDS011;13424;48.424;11.258;2023-07-13T11:28:13;5.43;;;2.75;;
25525;SDS011;13424;48.424;11.258;2023-07-13T11:33:48;6.80;;;2.80;;
25525;SDS011;13424;48.424;11.258;2023-07-13T11:36:23;6.93;;;2.83;;
25525;SDS011;13424;48.424;11.258;2023-07-13T11:39:02;6.88;;;3.20;;
25525;SDS011;13424;48.424;11.258;2023-07-13T11:41:49;2.58;;;2.38;;
25525;SDS011;13424;48.424;11.258;2023-07-13T11:44:23;4.78;;;3.00;;
25525;SDS011;13424;48.424;11.258;2023-07-13T11:46:53;5.53;;;2.75;;
25525;SDS011;13424;48.424;11.258;2023-07-13T11:49:24;5.18;;;2.75;;
25525;SDS011;13424;48.424;11.258;2023-07-13T11:51:55;7.80;;;2.88;;
25525;SDS011;13424;48.424;11.258;2023-07-13T11:54:34;2.60;;;2.40;;
25525;SDS011;13424;48.424;11.258;2023-07-13T11:57:34;5.60;;;2.90;;
25525;SDS011;13424;48.424;11.258;2023-07-13T12:00:15;6.57;;;2.70;;
25525;SDS011;13424;48.424;11.258;2023-07-13T12:02:56;2.80;;;2.50;;
25525;SDS011;13424;48.424;11.258;2023-07-13T12:05:26;4.03;;;2.42;;
25525;SDS011;13424;48.424;11.258;2023-07-13T12:07:52;5.70;;;3.03;;
25525;SDS011;13424;48.424;11.258;2023-07-13T12:10:27;4.28;;;2.85;;
25525;SDS011;13424;48.424;11.258;2023-07-13T12:13:05;5.03;;;2.70;;
25525;SDS011;13424;48.424;11.258;2023-07-13T12:15:39;6.57;;;3.17;;
25525;SDS011;13424;48.424;11.258;2023-07-13T12:18:29;5.03;;;2.60;;
25525;SDS011;13424;48.424;11.258;2023-07-13T12:20:58;3.83;;;2.78;;
25525;SDS011;13424;48.424;11.258;2023-07-13T12:23:29;2.45;;;2.10;;
25525;SDS011;13424;48.424;11.258;2023-07-13T12:26:02;4.35;;;2.63;;
25525;SDS011;13424;48.424;11.258;2023-07-13T12:34:11;7.35;;;3.05;;
25525;SDS011;13424;48.424;11.258;2023-07-13T12:37:00;4.50;;;2.80;;
25525;SDS011;13424;48.424;11.258;2023-07-13T12:39:36;3.97;;;2.55;;
25525;SDS011;13424;48.424;11.258;2023-07-13T12:42:27;5.60;;;2.97;;
25525;SDS011;13424;48.424;11.258;2023-07-13T12:45:03;2.83;;;2.30;;
25525;SDS011;13424;48.424;11.258;2023-07-13T12:47:44;4.88;;;3.13;;
25525;SDS011;13424;48.424;11.258;2023-07-13T12:50:17;4.40;;;2.80;;
25525;SDS011;13424;48.424;11.258;2023-07-13T12:52:53;3.72;;;2.20;;
25525;SDS011;13424;48.424;11.258;2023-07-13T12:55:29;3.08;;;2.78;;
25525;SDS011;13424;48.424;11.258;2023-07-13T12:57:59;4.40;;;2.97;;
25525;SDS011;13424;48.424;11.258;2023-07-13T13:00:36;3.42;;;2.50;;
25525;SDS011;13424;48.424;11.258;2023-07-13T13:03:26;3.97;;;2.47;;
25525;SDS011;13424;48.424;11.258;2023-07-13T13:08:46;5.80;;;3.20;;
25525;SDS011;13424;48.424;11.258;2023-07-13T13:11:14;3.75;;;2.80;;
25525;SDS011;13424;48.424;11.258;2023-07-13T13:13:45;4.20;;;2.70;;
25525;SDS011;13424;48.424;11.258;2023-07-13T13:21:26;4.47;;;2.65;;
25525;SDS011;13424;48.424;11.258;2023-07-13T13:23:53;2.58;;;2.33;;
25525;SDS011;13424;48.424;11.258;2023-07-13T13:26:21;4.22;;;2.50;;
25525;SDS011;13424;48.424;11.258;2023-07-13T13:28:48;3.63;;;2.10;;
25525;SDS011;13424;48.424;11.258;2023-07-13T13:31:14;3.83;;;2.65;;
25525;SDS011;13424;48.424;11.258;2023-07-13T13:33:41;6.60;;;2.90;;
25525;SDS011;13424;48.424;11.258;2023-07-13T13:36:21;10.55;;;3.50;;
25525;SDS011;13424;48.424;11.258;2023-07-13T13:38:49;6.85;;;2.63;;
25525;SDS011;13424;48.424;11.258;2023-07-13T13:41:16;6.22;;;2.97;;
25525;SDS011;13424;48.424;11.258;2023-07-13T13:43:42;3.03;;;2.65;;
25525;SDS011;13424;48.424;11.258;2023-07-13T13:46:17;2.38;;;2.17;;
25525;SDS011;13424;48.424;11.258;2023-07-13T13:48:47;2.40;;;2.20;;
25525;SDS011;13424;48.424;11.258;2023-07-13T13:51:19;4.43;;;2.80;;
25525;SDS011;13424;48.424;11.258;2023-07-13T13:53:48;5.88;;;2.92;;
25525;SDS011;13424;48.424;11.258;2023-07-13T13:56:15;4.68;;;2.60;;
25525;SDS011;13424;48.424;11.258;2023-07-13T13:58:43;3.60;;;2.80;;
25525;SDS011;13424;48.424;11.258;2023-07-13T14:01:18;8.07;;;2.90;;
25525;SDS011;13424;48.424;11.258;2023-07-13T14:03:48;4.47;;;2.63;;
25525;SDS011;13424;48.424;11.258;2023-07-13T14:06:16;3.38;;;2.90;;
25525;SDS011;13424;48.424;11.258;2023-07-13T14:08:45;6.38;;;2.90;;
25525;SDS011;13424;48.424;11.258;2023-07-13T14:11:14;2.55;;;2.20;;
25525;SDS011;13424;48.424;11.258;2023-07-13T14:13:47;3.80;;;2.20;;
25525;SDS011;13424;48.424;11.258;2023-07-13T14:16:26;5.53;;;2.65;;
25525;SDS011;13424;48.424;11.258;2023-07-13T14:18:56;4.40;;;2.60;;
25525;SDS011;13424;48.424;11.258;2023-07-13T14:21:26;3.63;;;2.40;;
25525;SDS011;13424;48.424;11.258;2023-07-13T14:23:54;6.93;;;2.50;;
25525;SDS011;13424;48.424;11.258;2023-07-13T14:26:24;3.13;;;2.45;;
25525;SDS011;13424;48.424;11.258;2023-07-13T14:28:55;9.18;;;2.42;;
25525;SDS011;13424;48.424;11.258;2023-07-13T14:31:25;7.80;;;2.55;;
25525;SDS011;13424;48.424;11.258;2023-07-13T14:33:54;4.97;;;2.78;;
25525;SDS011;13424;48.424;11.258;2023-07-13T14:39:01;3.42;;;3.10;;
25525;SDS011;13424;48.424;11.258;2023-07-13T14:41:36;4.60;;;2.47;;
25525;SDS011;13424;48.424;11.258;2023-07-13T14:44:15;5.03;;;2.42;;
25525;SDS011;13424;48.424;11.258;2023-07-13T14:46:44;4.95;;;3.05;;
25525;SDS011;13424;48.424;11.258;2023-07-13T14:49:31;2.28;;;2.08;;
25525;SDS011;13424;48.424;11.258;2023-07-13T14:54:42;4.03;;;2.22;;
25525;SDS011;13424;48.424;11.258;2023-07-13T14:57:14;4.72;;;3.00;;
25525;SDS011;13424;48.424;11.258;2023-07-13T14:59:44;4.20;;;2.30;;
25525;SDS011;13424;48.424;11.258;2023-07-13T15:02:33;3.80;;;2.45;;
25525;SDS011;13424;48.424;11.258;2023-07-13T15:05:11;4.75;;;2.40;;
25525;SDS011;13424;48.424;11.258;2023-07-13T15:07:43;9.13;;;4.05;;
25525;SDS011;13424;48.424;11.258;2023-07-13T15:10:18;7.45;;;2.85;;
25525;SDS011;13424;48.424;11.258;2023-07-13T15:16:00;8.18;;;2.72;;
25525;SDS011;13424;48.424;11.258;2023-07-13T15:18:26;4.65;;;2.30;;
25525;SDS011;13424;48.424;11.258;2023-07-13T15:20:53;3.42;;;2.45;;
25525;SDS011;13424;48.424;11.258;2023-07-13T15:23:21;4.00;;;2.13;;
25525;SDS011;13424;48.424;11.258;2023-07-13T15:25:48;2.58;;;2.20;;
25525;SDS011;13424;48.424;11.258;2023-07-13T15:28:15;2.80;;;2.42;;
25525;SDS011;13424;48.424;11.258;2023-07-13T15:30:44;2.83;;;2.10;;
25525;SDS011;13424;48.424;11.258;2023-07-13T15:33:27;3.33;;;2.20;;
25525;SDS011;13424;48.424;11.258;2023-07-13T15:35:55;2.95;;;2.05;;
25525;SDS011;13424;48.424;11.258;2023-07-13T15:38:29;4.38;;;2.10;;
25525;SDS011;13424;48.424;11.258;2023-07-13T15:40:56;2.50;;;2.30;;
25525;SDS011;13424;48.424;11.258;2023-07-13T15:43:23;4.30;;;2.78;;
25525;SDS011;13424;48.424;11.258;2023-07-13T15:45:51;6.20;;;2.50;;
25525;SDS011;13424;48.424;11.258;2023-07-13T15:48:19;5.15;;;2.65;;
25525;SDS011;13424;48.424;11.258;2023-07-13T15:53:22;3.47;;;2.20;;
25525;SDS011;13424;48.424;11.258;2023-07-13T15:55:53;2.95;;;2.22;;
25525;SDS011;13424;48.424;11.258;2023-07-13T15:58:19;3.78;;;2.13;;
25525;SDS011;13424;48.424;11.258;2023-07-13T16:00:45;4.07;;;2.45;;
25525;SDS011;13424;48.424;11.258;2023-07-13T16:03:14;4.13;;;2.00;;
25525;SDS011;13424;48.424;11.258;2023-07-13T16:05:40;5.18;;;2.38;;
25525;SDS011;13424;48.424;11.258;2023-07-13T16:08:06;4.38;;;2.17;;
25525;SDS011;13424;48.424;11.258;2023-07-13T16:10:56;3.85;;;2.08;;
25525;SDS011;13424;48.424;11.258;2023-07-13T16:13:25;5.15;;;2.03;;
25525;SDS011;13424;48.424;11.258;2023-07-13T16:15:52;5.13;;;2.00;;
25525;SDS011;13424;48.424;11.258;2023-07-13T16:18:21;3.70;;;2.30;;
25525;SDS011;13424;48.424;11.258;2023-07-13T16:20:47;3.80;;;2.55;;
25525;SDS011;13424;48.424;11.258;2023-07-13T16:23:15;4.53;;;2.03;;
25525;SDS011;13424;48.424;11.258;2023-07-13T16:25:43;3.60;;;2.28;;
25525;SDS011;13424;48.424;11.258;2023-07-13T16:28:10;3.40;;;2.25;;
25525;SDS011;13424;48.424;11.258;2023-07-13T16:30:38;3.40;;;2.10;;
25525;SDS011;13424;48.424;11.258;2023-07-13T16:33:05;3.00;;;2.03;;
25525;SDS011;13424;48.424;11.258;2023-07-13T16:35:39;4.55;;;2.38;;
25525;SDS011;13424;48.424;11.258;2023-07-13T16:38:14;3.92;;;1.88;;
25525;SDS011;13424;48.424;11.258;2023-07-13T16:40:45;3.20;;;2.05;;
25525;SDS011;13424;48.424;11.258;2023-07-13T16:43:17;5.15;;;2.17;;
25525;SDS011;13424;48.424;11.258;2023-07-13T16:45:46;3.13;;;2.58;;
25525;SDS011;13424;48.424;11.258;2023-07-13T16:48:18;3.65;;;2.42;;
25525;SDS011;13424;48.424;11.258;2023-07-13T16:50:54;3.95;;;2.10;;
25525;SDS011;13424;48.424;11.258;2023-07-13T16:53:25;1.80;;;1.70;;
25525;SDS011;13424;48.424;11.258;2023-07-13T16:55:53;3.03;;;1.80;;
25525;SDS011;13424;48.424;11.258;2023-07-13T16:58:25;3.47;;;2.20;;
25525;SDS011;13424;48.424;11.258;2023-07-13T17:00:56;2.50;;;1.98;;
25525;SDS011;13424;48.424;11.258;2023-07-13T17:03:23;2.55;;;1.88;;
25525;SDS011;13424;48.424;11.258;2023-07-13T17:05:52;3.55;;;1.73;;
25525;SDS011;13424;48.424;11.258;2023-07-13T17:08:23;4.53;;;2.33;;
25525;SDS011;13424;48.424;11.258;2023-07-13T17:11:00;3.88;;;2.00;;
25525;SDS011;13424;48.424;11.258;2023-07-13T17:13:27;4.30;;;2.03;;
25525;SDS011;13424;48.424;11.258;2023-07-13T17:15:55;4.53;;;2.30;;
25525;SDS011;13424;48.424;11.258;2023-07-13T17:18:23;8.00;;;2.53;;
25525;SDS011;13424;48.424;11.258;2023-07-13T17:21:05;3.85;;;2.22;;
25525;SDS011;13424;48.424;11.258;2023-07-13T17:23:39;5.53;;;2.03;;
25525;SDS011;13424;48.424;11.258;2023-07-13T17:26:05;3.63;;;2.20;;
25525;SDS011;13424;48.424;11.258;2023-07-13T17:28:31;6.85;;;2.35;;
25525;SDS011;13424;48.424;11.258;2023-07-13T17:30:58;2.17;;;1.95;;
25525;SDS011;13424;48.424;11.258;2023-07-13T17:33:30;4.60;;;2.03;;
25525;SDS011;13424;48.424;11.258;2023-07-13T17:36:13;3.47;;;1.90;;
25525;SDS011;13424;48.424;11.258;2023-07-13T17:38:48;3.85;;;2.20;;
25525;SDS011;13424;48.424;11.258;2023-07-13T17:41:21;3.65;;;2.03;;
25525;SDS011;13424;48.424;11.258;2023-07-13T17:43:49;2.67;;;1.98;;
25525;SDS011;13424;48.424;11.258;2023-07-13T17:46:23;4.95;;;2.30;;
25525;SDS011;13424;48.424;11.258;2023-07-13T17:48:54;4.22;;;2.20;;
25525;SDS011;13424;48.424;11.258;2023-07-13T17:51:20;2.88;;;2.20;;
25525;SDS011;13424;48.424;11.258;2023-07-13T17:53:50;6.00;;;2.30;;
25525;SDS011;13424;48.424;11.258;2023-07-13T17:56:16;2.95;;;1.88;;
25525;SDS011;13424;48.424;11.258;2023-07-13T17:58:43;3.67;;;1.80;;
25525;SDS011;13424;48.424;11.258;2023-07-13T18:01:12;3.30;;;1.77;;
25525;SDS011;13424;48.424;11.258;2023-07-13T18:03:43;4.83;;;2.10;;
25525;SDS011;13424;48.424;11.258;2023-07-13T18:06:15;2.55;;;2.35;;
25525;SDS011;13424;48.424;11.258;2023-07-13T18:09:26;3.47;;;2.90;;
25525;SDS011;13424;48.424;11.258;2023-07-13T18:11:53;2.88;;;1.95;;
25525;SDS011;13424;48.424;11.258;2023-07-13T18:14:21;4.95;;;2.38;;
25525;SDS011;13424;48.424;11.258;2023-07-13T18:16:52;3.08;;;2.28;;
25525;SDS011;13424;48.424;11.258;2023-07-13T18:19:32;4.82;;;2.25;;
25525;SDS011;13424;48.424;11.258;2023-07-13T18:22:15;4.35;;;2.45;;
25525;SDS011;13424;48.424;11.258;2023-07-13T18:24:43;2.45;;;2.25;;
25525;SDS011;13424;48.424;11.258;2023-07-13T18:27:10;3.40;;;2.10;;
25525;SDS011;13424;48.424;11.258;2023-07-13T18:29:37;3.80;;;2.30;;
25525;SDS011;13424;48.424;11.258;2023-07-13T18:32:03;4.57;;;2.38;;
25525;SDS011;13424;48.424;11.258;2023-07-13T18:34:34;3.17;;;2.25;;
25525;SDS011;13424;48.424;11.258;2023-07-13T18:37:18;5.40;;;3.00;;
25525;SDS011;13424;48.424;11.258;2023-07-13T18:39:49;5.30;;;2.20;;
25525;SDS011;13424;48.424;11.258;2023-07-13T18:42:20;2.55;;;2.08;;
25525;SDS011;13424;48.424;11.258;2023-07-13T18:44:47;4.32;;;2.22;;
25525;SDS011;13424;48.424;11.258;2023-07-13T18:47:18;2.53;;;2.33;;
25525;SDS011;13424;48.424;11.258;2023-07-13T18:49:48;5.07;;;2.45;;
25525;SDS011;13424;48.424;11.258;2023-07-13T18:52:19;7.47;;;3.30;;
25525;SDS011;13424;48.424;11.258;2023-07-13T18:54:46;6.03;;;3.63;;
25525;SDS011;13424;48.424;11.258;2023-07-13T18:57:13;6.80;;;2.75;;
25525;SDS011;13424;48.424;11.258;2023-07-13T18:59:43;5.20;;;2.78;;
25525;SDS011;13424;48.424;11.258;2023-07-13T19:02:13;5.18;;;2.97;;
25525;SDS011;13424;48.424;11.258;2023-07-13T19:04:41;4.78;;;3.13;;
25525;SDS011;13424;48.424;11.258;2023-07-13T19:07:09;5.88;;;3.38;;
25525;SDS011;13424;48.424;11.258;2023-07-13T19:09:36;4.88;;;3.00;;
25525;SDS011;13424;48.424;11.258;2023-07-13T19:12:16;3.85;;;2.90;;
25525;SDS011;13424;48.424;11.258;2023-07-13T19:14:44;4.45;;;3.03;;
25525;SDS011;13424;48.424;11.258;2023-07-13T19:17:14;3.42;;;2.50;;
25525;SDS011;13424;48.424;11.258;2023-07-13T19:19:40;6.55;;;3.72;;
25525;SDS011;13424;48.424;11.258;2023-07-13T19:22:08;12.55;;;3.47;;
25525;SDS011;13424;48.424;11.258;2023-07-13T19:24:43;4.57;;;2.47;;
25525;SDS011;13424;48.424;11.258;2023-07-13T19:27:10;5.63;;;2.65;;
25525;SDS011;13424;48.424;11.258;2023-07-13T19:29:38;6.63;;;2.90;;
25525;SDS011;13424;48.424;11.258;2023-07-13T19:32:08;5.97;;;2.70;;
25525;SDS011;13424;48.424;11.258;2023-07-13T19:34:35;4.63;;;3.10;;
25525;SDS011;13424;48.424;11.258;2023-07-13T19:37:04;3.42;;;3.08;;
25525;SDS011;13424;48.424;11.258;2023-07-13T19:39:41;8.43;;;3.50;;
25525;SDS011;13424;48.424;11.258;2023-07-13T19:42:18;9.95;;;3.70;;
25525;SDS011;13424;48.424;11.258;2023-07-13T19:44:45;4.53;;;3.55;;
25525;SDS011;13424;48.424;11.258;2023-07-13T19:47:14;6.63;;;3.70;;
25525;SDS011;13424;48.424;11.258;2023-07-13T19:49:41;8.48;;;3.60;;
25525;SDS011;13424;48.424;11.258;2023-07-13T19:52:12;4.18;;;3.78;;
25525;SDS011;13424;48.424;11.258;2023-07-13T19:54:42;7.35;;;3.85;;
25525;SDS011;13424;48.424;11.258;2023-07-13T19:57:15;4.90;;;3.97;;
25525;SDS011;13424;48.424;11.258;2023-07-13T19:59:43;4.97;;;4.15;;
25525;SDS011;13424;48.424;11.258;2023-07-13T20:02:24;5.18;;;3.45;;
25525;SDS011;13424;48.424;11.258;2023-07-13T20:04:51;9.63;;;4.18;;
25525;SDS011;13424;48.424;11.258;2023-07-13T20:07:19;7.80;;;4.07;;
25525;SDS011;13424;48.424;11.258;2023-07-13T20:09:49;7.85;;;3.63;;
25525;SDS011;13424;48.424;11.258;2023-07-13T20:12:20;5.50;;;3.67;;
25525;SDS011;13424;48.424;11.258;2023-07-13T20:14:50;5.82;;;3.30;;
25525;SDS011;13424;48.424;11.258;2023-07-13T20:17:37;5.07;;;3.75;;
25525;SDS011;13424;48.424;11.258;2023-07-13T20:20:35;7.40;;;3.67;;
25525;SDS011;13424;48.424;11.258;2023-07-13T20:23:10;5.30;;;3.75;;
25525;SDS011;13424;48.424;11.258;2023-07-13T20:25:41;5.15;;;3.85;;
25525;SDS011;13424;48.424;11.258;2023-07-13T20:28:08;5.45;;;4.30;;
25525;SDS011;13424;48.424;11.258;2023-07-13T20:30:42;4.03;;;3.47;;
25525;SDS011;13424;48.424;11.258;2023-07-13T20:33:19;5.03;;;4.05;;
25525;SDS011;13424;48.424;11.258;2023-07-13T20:36:01;4.90;;;3.92;;
25525;SDS011;13424;48.424;11.258;2023-07-13T20:38:30;6.07;;;3.58;;
25525;SDS011;13424;48.424;11.258;2023-07-13T20:40:56;7.72;;;3.03;;
25525;SDS011;13424;48.424;11.258;2023-07-13T20:43:22;5.60;;;4.38;;
25525;SDS011;13424;48.424;11.258;2023-07-13T20:45:55;5.85;;;3.75;;
25525;SDS011;13424;48.424;11.258;2023-07-13T20:48:37;3.80;;;3.05;;
25525;SDS011;13424;48.424;11.258;2023-07-13T20:51:10;4.13;;;3.72;;
25525;SDS011;13424;48.424;11.258;2023-07-13T20:53:36;5.85;;;3.72;;
25525;SDS011;13424;48.424;11.258;2023-07-13T20:56:08;5.15;;;3.22;;
25525;SDS011;13424;48.424;11.258;2023-07-13T20:58:40;3.38;;;2.85;;
25525;SDS011;13424;48.424;11.258;2023-07-13T21:01:16;5.85;;;3.25;;
25525;SDS011;13424;48.424;11.258;2023-07-13T21:03:46;9.57;;;3.40;;
25525;SDS011;13424;48.424;11.258;2023-07-13T21:06:18;3.83;;;3.00;;
25525;SDS011;13424;48.424;11.258;2023-07-13T21:11:12;5.55;;;3.47;;
25525;SDS011;13424;48.424;11.258;2023-07-13T21:13:40;8.68;;;3.88;;
25525;SDS011;13424;48.424;11.258;2023-07-13T21:16:23;8.63;;;3.97;;
25525;SDS011;13424;48.424;11.258;2023-07-13T21:18:52;5.80;;;4.45;;
25525;SDS011;13424;48.424;11.258;2023-07-13T21:21:23;10.43;;;4.07;;
25525;SDS011;13424;48.424;11.258;2023-07-13T21:23:51;4.80;;;3.90;;
25525;SDS011;13424;48.424;11.258;2023-07-13T21:26:19;4.32;;;3.88;;
25525;SDS011;13424;48.424;11.258;2023-07-13T21:28:47;5.90;;;4.35;;
25525;SDS011;13424;48.424;11.258;2023-07-13T21:31:22;4.93;;;3.88;;
25525;SDS011;13424;48.424;11.258;2023-07-13T21:33:59;4.72;;;4.32;;
25525;SDS011;13424;48.424;11.258;2023-07-13T21:36:41;4.57;;;4.18;;
25525;SDS011;13424;48.424;11.258;2023-07-13T21:39:10;7.82;;;4.53;;
25525;SDS011;13424;48.424;11.258;2023-07-13T21:41:42;10.05;;;4.70;;
25525;SDS011;13424;48.424;11.258;2023-07-13T21:44:25;7.13;;;4.35;;
25525;SDS011;13424;48.424;11.258;2023-07-13T21:46:53;7.25;;;4.10;;
25525;SDS011;13424;48.424;11.258;2023-07-13T21:49:21;5.75;;;4.97;;
25525;SDS011;13424;48.424;11.258;2023-07-13T21:51:48;8.68;;;4.82;;
25525;SDS011;13424;48.424;11.258;2023-07-13T21:54:16;7.50;;;4.57;;
25525;SDS011;13424;48.424;11.258;2023-07-13T21:59:38;4.93;;;4.28;;
25525;SDS011;13424;48.424;11.258;2023-07-13T22:02:04;6.82;;;4.07;;
25525;SDS011;13424;48.424;11.258;2023-07-13T22:04:30;7.28;;;4.65;;
25525;SDS011;13424;48.424;11.258;2023-07-13T22:06:55;5.93;;;4.95;;
25525;SDS011;13424;48.424;11.258;2023-07-13T22:09:22;6.22;;;3.85;;
25525;SDS011;13424;48.424;11.258;2023-07-13T22:11:48;5.43;;;4.40;;
25525;SDS011;13424;48.424;11.258;2023-07-13T22:14:14;8.07;;;4.38;;
25525;SDS011;13424;48.424;11.258;2023-07-13T22:16:40;5.20;;;4.15;;
25525;SDS011;13424;48.424;11.258;2023-07-13T22:19:13;5.13;;;4.30;;
25525;SDS011;13424;48.424;11.258;2023-07-13T22:21:41;4.72;;;4.25;;
25525;SDS011;13424;48.424;11.258;2023-07-13T22:24:14;6.68;;;4.22;;
25525;SDS011;13424;48.424;11.258;2023-07-13T22:26:46;6.43;;;4.03;;
25525;SDS011;13424;48.424;11.258;2023-07-13T22:29:14;5.72;;;3.70;;
25525;SDS011;13424;48.424;11.258;2023-07-13T22:31:45;5.70;;;4.35;;
25525;SDS011;13424;48.424;11.258;2023-07-13T22:34:13;10.45;;;3.63;;
25525;SDS011;13424;48.424;11.258;2023-07-13T22:36:42;4.88;;;4.03;;
25525;SDS011;13424;48.424;11.258;2023-07-13T22:39:11;5.68;;;3.88;;
25525;SDS011;13424;48.424;11.258;2023-07-13T22:44:18;6.18;;;3.80;;
25525;SDS011;13424;48.424;11.258;2023-07-13T22:46:46;4.72;;;4.22;;
25525;SDS011;13424;48.424;11.258;2023-07-13T22:51:50;6.90;;;5.05;;
25525;SDS011;13424;48.424;11.258;2023-07-13T22:54:17;6.28;;;5.43;;
25525;SDS011;13424;48.424;11.258;2023-07-13T22:56:44;8.27;;;4.82;;
25525;SDS011;13424;48.424;11.258;2023-07-13T22:59:10;5.85;;;4.65;;
25525;SDS011;13424;48.424;11.258;2023-07-13T23:01:37;5.53;;;4.68;;
25525;SDS011;13424;48.424;11.258;2023-07-13T23:04:35;7.68;;;4.78;;
25525;SDS011;13424;48.424;11.258;2023-07-13T23:07:02;7.00;;;4.75;;
25525;SDS011;13424;48.424;11.258;2023-07-13T23:09:29;8.15;;;4.70;;
25525;SDS011;13424;48.424;11.258;2023-07-13T23:11:57;5.20;;;4.70;;
25525;SDS011;13424;48.424;11.258;2023-07-13T23:14:23;7.22;;;5.13;;
25525;SDS011;13424;48.424;11.258;2023-07-13T23:16:53;5.10;;;4.38;;
25525;SDS011;13424;48.424;11.258;2023-07-13T23:19:31;5.28;;;4.35;;
25525;SDS011;13424;48.424;11.258;2023-07-13T23:22:00;5.55;;;4.85;;
25525;SDS011;13424;48.424;11.258;2023-07-13T23:24:31;4.88;;;4.35;;
25525;SDS011;13424;48.424;11.258;2023-07-13T23:26:59;9.52;;;4.75;;
25525;SDS011;13424;48.424;11.258;2023-07-13T23:29:26;6.55;;;4.55;;
25525;SDS011;13424;48.424;11.258;2023-07-13T23:31:52;6.50;;;4.57;;
25525;SDS011;13424;48.424;11.258;2023-07-13T23:34:18;6.32;;;5.20;;